createdAt,value
2018-02-04T00:01:52.024Z,32.13
2018-02-04T00:04:20.720Z,31.00
2018-02-04T00:06:49.567Z,30.20
2018-02-04T00:09:19.608Z,29.77
2018-02-04T00:11:48.003Z,32.57
2018-02-04T00:14:17.808Z,32.50
2018-02-04T00:16:46.186Z,34.10
2018-02-04T00:19:15.672Z,31.60
2018-02-04T00:21:44.139Z,30.63
2018-02-04T00:24:12.621Z,28.20
2018-02-04T00:26:41.270Z,29.27
2018-02-04T00:29:09.642Z,34.57
2018-02-04T00:31:38.781Z,34.80
2018-02-04T00:34:07.352Z,30.70
2018-02-04T00:36:35.723Z,33.63
2018-02-04T00:39:03.304Z,32.97
2018-02-04T00:41:31.716Z,31.47
2018-02-04T00:44:01.071Z,30.80
2018-02-04T00:46:29.451Z,29.10
2018-02-04T00:48:57.852Z,33.50
2018-02-04T00:51:26.219Z,29.93
2018-02-04T00:53:54.599Z,30.13
2018-02-04T00:56:22.978Z,26.47
2018-02-04T00:58:51.171Z,28.73
2018-02-04T01:01:19.535Z,29.40
2018-02-04T01:03:47.925Z,24.83
2018-02-04T01:06:16.285Z,26.63
2018-02-04T01:08:44.738Z,27.37
2018-02-04T01:11:13.115Z,23.63
2018-02-04T01:13:41.641Z,26.00
2018-02-04T01:16:09.672Z,27.30
2018-02-04T01:18:38.048Z,24.93
2018-02-04T01:21:06.639Z,23.87
2018-02-04T01:23:35.022Z,22.80
2018-02-04T01:26:03.397Z,24.83
2018-02-04T01:28:31.812Z,28.50
2018-02-04T01:31:00.963Z,24.30
2018-02-04T01:33:29.357Z,25.70
2018-02-04T01:35:57.833Z,23.20
2018-02-04T01:38:26.228Z,26.43
2018-02-04T01:40:54.705Z,23.30
2018-02-04T01:43:23.088Z,25.80
2018-02-04T01:45:51.463Z,24.90
2018-02-04T01:48:19.842Z,23.90
2018-02-04T01:50:48.223Z,25.87
2018-02-04T01:53:16.762Z,23.30
2018-02-04T01:55:48.205Z,22.90
2018-02-04T01:58:16.588Z,24.90
2018-02-04T02:00:45.680Z,24.87
2018-02-04T02:03:14.041Z,28.07
2018-02-04T02:05:42.520Z,25.80
2018-02-04T02:08:11.680Z,26.57
2018-02-04T02:10:40.133Z,28.40
2018-02-04T02:13:08.606Z,27.80
2018-02-04T02:15:37.028Z,32.63
2018-02-04T02:18:05.385Z,28.97
2018-02-04T02:20:33.754Z,28.20
2018-02-04T02:23:02.121Z,27.60
2018-02-04T02:25:30.703Z,25.93
2018-02-04T02:27:59.096Z,29.50
2018-02-04T02:30:27.304Z,28.93
2018-02-04T02:32:55.121Z,30.00
2018-02-04T02:35:23.507Z,33.67
2018-02-04T02:37:51.934Z,31.83
2018-02-04T02:40:21.325Z,35.63
2018-02-04T02:42:49.708Z,36.70
2018-02-04T02:45:18.126Z,36.07
2018-02-04T02:47:46.461Z,37.10
2018-02-04T02:50:15.986Z,36.37
2018-02-04T02:52:45.635Z,33.90
2018-02-04T02:55:14.220Z,41.33
2018-02-04T02:57:43.079Z,38.20
2018-02-04T03:00:11.454Z,36.83
2018-02-04T03:02:39.828Z,38.30
2018-02-04T03:05:08.197Z,33.20
2018-02-04T03:07:37.334Z,31.63
2018-02-04T03:10:05.393Z,31.60
2018-02-04T03:12:33.777Z,32.97
2018-02-04T03:15:02.157Z,30.20
2018-02-04T03:17:30.301Z,30.80
2018-02-04T03:19:58.688Z,29.53
2018-02-04T03:22:27.227Z,33.60
2018-02-04T03:24:56.210Z,29.23
2018-02-04T03:27:25.054Z,28.13
2018-02-04T03:29:53.246Z,29.07
2018-02-04T03:32:21.598Z,26.90
2018-02-04T03:34:49.973Z,26.33
2018-02-04T03:37:18.358Z,25.23
2018-02-04T03:39:46.862Z,26.40
2018-02-04T03:42:15.271Z,28.37
2018-02-04T03:44:43.660Z,23.07
2018-02-04T03:47:12.162Z,21.47
2018-02-04T03:49:40.735Z,22.37
2018-02-04T03:52:10.318Z,20.60
2018-02-04T03:54:38.733Z,22.10
2018-02-04T03:57:07.883Z,19.60
2018-02-04T03:59:36.262Z,17.83
2018-02-04T04:02:04.666Z,19.67
2018-02-04T04:04:33.036Z,17.33
2018-02-04T04:07:01.618Z,16.50
2018-02-04T04:09:31.527Z,16.10
2018-02-04T04:11:59.911Z,13.43
2018-02-04T04:14:28.280Z,15.30
2018-02-04T04:16:56.633Z,15.60
2018-02-04T04:19:25.067Z,13.97
2018-02-04T04:21:53.987Z,17.17
2018-02-04T04:24:22.377Z,15.57
2018-02-04T04:26:50.764Z,16.27
2018-02-04T04:29:19.141Z,14.00
2018-02-04T04:31:47.528Z,12.80
2018-02-04T04:34:15.891Z,11.70
2018-02-04T04:36:44.312Z,11.13
2018-02-04T04:39:12.005Z,10.77
2018-02-04T04:41:40.343Z,9.77
2018-02-04T04:44:08.702Z,11.90
2018-02-04T04:46:37.093Z,9.80
2018-02-04T04:49:05.458Z,13.30
2018-02-04T04:51:33.836Z,8.87
2018-02-04T04:54:02.212Z,7.87
2018-02-04T04:56:30.259Z,9.37
2018-02-04T04:58:58.640Z,9.10
2018-02-04T05:01:27.013Z,8.00
2018-02-04T05:03:55.664Z,7.93
2018-02-04T05:06:24.827Z,9.57
2018-02-04T05:08:53.190Z,9.17
2018-02-04T05:11:21.548Z,8.40
2018-02-04T05:13:49.943Z,9.67
2018-02-04T05:16:18.306Z,7.93
2018-02-04T05:18:46.818Z,8.20
2018-02-04T05:21:15.191Z,9.00
2018-02-04T05:23:44.353Z,8.00
2018-02-04T05:26:12.557Z,5.50
2018-02-04T05:28:40.902Z,6.50
2018-02-04T05:31:09.269Z,5.50
2018-02-04T05:33:37.612Z,5.87
2018-02-04T05:36:06.088Z,5.90
2018-02-04T05:38:34.285Z,5.50
2018-02-04T05:41:02.688Z,6.00
2018-02-04T05:43:31.059Z,6.67
2018-02-04T05:45:59.602Z,5.50
2018-02-04T05:48:29.399Z,5.70
2018-02-04T05:50:57.842Z,8.10
2018-02-04T05:53:26.257Z,6.10
2018-02-04T05:55:54.623Z,6.10
2018-02-04T05:58:22.993Z,6.23
2018-02-04T06:00:51.355Z,5.50
2018-02-04T06:03:19.707Z,6.43
2018-02-04T06:05:48.998Z,6.03
2018-02-04T06:08:18.134Z,5.57
2018-02-04T06:10:46.492Z,6.90
2018-02-04T06:13:14.913Z,6.60
2018-02-04T06:15:43.458Z,6.40
2018-02-04T06:18:11.841Z,6.13
2018-02-04T06:20:40.035Z,6.53
2018-02-04T06:23:08.204Z,6.30
2018-02-04T06:25:37.285Z,8.83
2018-02-04T06:28:05.568Z,6.67
2018-02-04T06:30:33.836Z,7.13
2018-02-04T06:33:01.344Z,11.50
2018-02-04T06:35:29.704Z,6.30
2018-02-04T06:37:58.165Z,7.03
2018-02-04T06:40:26.554Z,8.27
2018-02-04T06:42:54.912Z,5.90
2018-02-04T06:45:24.206Z,5.73
2018-02-04T06:47:52.689Z,6.40
2018-02-04T06:50:21.047Z,6.47
2018-02-04T06:52:49.398Z,6.07
2018-02-04T06:55:17.822Z,6.83
2018-02-04T06:57:45.498Z,6.10
2018-02-04T07:00:13.869Z,5.50
2018-02-04T07:02:42.512Z,6.00
2018-02-04T07:05:11.647Z,6.30
2018-02-04T07:07:40.030Z,6.30
2018-02-04T07:10:08.720Z,5.97
2018-02-04T07:12:37.082Z,7.47
2018-02-04T07:15:04.828Z,6.60
2018-02-04T07:17:34.110Z,5.83
2018-02-04T07:20:03.259Z,5.30
2018-02-04T07:22:31.764Z,7.03
2018-02-04T07:25:00.258Z,6.17
2018-02-04T07:27:29.397Z,7.13
2018-02-04T07:29:57.781Z,6.80
2018-02-04T07:32:26.274Z,7.57
2018-02-04T07:34:54.638Z,6.90
2018-02-04T07:37:22.995Z,7.10
2018-02-04T07:39:51.384Z,6.53
2018-02-04T07:42:19.895Z,6.83
2018-02-04T07:44:48.256Z,6.20
2018-02-04T07:47:16.597Z,6.67
2018-02-04T07:49:45.906Z,7.27
2018-02-04T07:52:15.090Z,6.80
2018-02-04T07:54:44.258Z,8.23
2018-02-04T07:57:12.904Z,7.80
2018-02-04T07:59:41.351Z,6.53
2018-02-04T08:02:10.659Z,6.20
2018-02-04T08:04:39.038Z,7.10
2018-02-04T08:07:08.199Z,6.10
2018-02-04T08:09:36.647Z,6.17
2018-02-04T08:12:05.276Z,7.17
2018-02-04T08:14:33.610Z,6.40
2018-02-04T08:17:02.033Z,10.87
2018-02-04T08:19:30.401Z,10.03
2018-02-04T08:21:59.435Z,8.20
2018-02-04T08:24:28.646Z,9.27
2018-02-04T08:26:57.241Z,7.27
2018-02-04T08:29:25.814Z,12.70
2018-02-04T08:31:54.202Z,9.23
2018-02-04T08:34:23.137Z,10.03
2018-02-04T08:36:52.397Z,9.00
2018-02-04T08:39:20.926Z,8.73
2018-02-04T08:41:50.075Z,10.43
2018-02-04T08:44:18.561Z,10.70
2018-02-04T08:46:47.037Z,9.67
2018-02-04T08:49:16.310Z,10.37
2018-02-04T08:51:44.585Z,10.97
2018-02-04T08:54:12.798Z,8.07
2018-02-04T08:56:40.845Z,11.33
2018-02-04T08:59:10.067Z,9.20
2018-02-04T09:01:39.504Z,9.00
2018-02-04T09:04:08.854Z,8.10
2018-02-04T09:06:37.573Z,13.27
2018-02-04T09:09:07.097Z,7.60
2018-02-04T09:11:36.031Z,10.57
2018-02-04T09:14:04.465Z,8.10
2018-02-04T09:16:33.627Z,8.23
2018-02-04T09:19:02.146Z,7.57
2018-02-04T09:21:31.891Z,8.60
2018-02-04T09:24:00.395Z,8.40
2018-02-04T09:26:29.564Z,8.30
2018-02-04T09:28:58.191Z,7.57
2018-02-04T09:31:26.738Z,10.47
2018-02-04T09:33:55.111Z,7.47
2018-02-04T09:36:23.749Z,9.30
2018-02-04T09:38:52.294Z,9.47
2018-02-04T09:41:20.877Z,10.00
2018-02-04T09:43:49.443Z,7.27
2018-02-04T09:46:17.909Z,9.90
2018-02-04T09:48:46.529Z,10.70
2018-02-04T09:51:15.115Z,11.93
2018-02-04T09:53:43.496Z,11.40
2018-02-04T09:56:11.220Z,8.60
2018-02-04T09:58:39.648Z,10.50
2018-02-04T10:01:08.301Z,11.03
2018-02-04T10:03:36.759Z,12.13
2018-02-04T10:06:05.383Z,9.63
2018-02-04T10:08:34.448Z,10.50
2018-02-04T10:11:02.843Z,11.27
2018-02-04T10:13:31.392Z,13.20
2018-02-04T10:15:59.927Z,12.40
2018-02-04T10:18:28.303Z,17.60
2018-02-04T10:20:56.680Z,10.80
2018-02-04T10:23:24.452Z,11.23
2018-02-04T10:25:52.886Z,12.30
2018-02-04T10:28:21.479Z,12.20
2018-02-04T10:30:50.050Z,12.73
2018-02-04T10:33:18.666Z,12.80
2018-02-04T10:35:47.158Z,10.43
2018-02-04T10:38:15.550Z,13.83
2018-02-04T10:40:44.168Z,10.97
2018-02-04T10:43:12.592Z,11.90
2018-02-04T10:45:41.611Z,11.77
2018-02-04T10:48:10.821Z,13.73
2018-02-04T10:50:44.715Z,10.87
2018-02-04T10:53:13.131Z,14.43
2018-02-04T10:55:41.828Z,11.07
2018-02-04T10:58:10.503Z,13.40
2018-02-04T11:00:38.889Z,14.00
2018-02-04T11:03:06.621Z,12.20
2018-02-04T11:05:35.060Z,13.67
2018-02-04T11:08:03.474Z,11.97
2018-02-04T11:10:32.756Z,11.27
2018-02-04T11:13:01.312Z,14.33
2018-02-04T11:15:29.758Z,12.80
2018-02-04T11:17:58.197Z,16.63
2018-02-04T11:20:27.085Z,17.03
2018-02-04T11:22:55.840Z,13.33
2018-02-04T11:25:24.287Z,15.70
2018-02-04T11:27:52.668Z,15.90
2018-02-04T11:30:21.094Z,15.80
2018-02-04T11:32:48.843Z,14.47
2018-02-04T11:35:17.211Z,27.70
2018-02-04T11:37:45.632Z,21.13
2018-02-04T11:40:14.019Z,21.63
2018-02-04T11:42:43.307Z,22.37
2018-02-04T11:45:12.493Z,23.33
2018-02-04T11:47:41.051Z,22.77
2018-02-04T11:50:09.418Z,22.60
2018-02-04T11:52:37.763Z,21.80
2018-02-04T11:55:07.123Z,21.27
2018-02-04T11:57:35.579Z,21.80
2018-02-04T12:00:03.620Z,19.07
2018-02-04T12:02:32.000Z,23.37
2018-02-04T12:05:00.427Z,21.20
2018-02-04T12:07:29.848Z,25.80
2018-02-04T12:09:58.223Z,26.03
2018-02-04T12:12:26.586Z,27.83
2018-02-04T12:14:54.948Z,24.70
2018-02-04T12:17:23.689Z,21.87
2018-02-04T12:19:52.824Z,23.13
2018-02-04T12:22:21.357Z,23.20
2018-02-04T12:24:49.868Z,23.33
2018-02-04T12:27:18.266Z,26.80
2018-02-04T12:29:46.837Z,22.07
2018-02-04T12:32:15.251Z,19.50
2018-02-04T12:34:43.605Z,20.10
2018-02-04T12:37:12.168Z,20.03
2018-02-04T12:39:41.224Z,21.77
2018-02-04T12:42:11.363Z,29.53
2018-02-04T12:44:40.775Z,22.00
2018-02-04T12:47:09.273Z,18.43
2018-02-04T12:49:37.701Z,20.10
2018-02-04T12:52:06.671Z,24.10
2018-02-04T12:54:35.096Z,20.10
2018-02-04T12:57:04.461Z,33.20
2018-02-04T12:59:32.825Z,21.67
2018-02-04T13:02:01.742Z,18.53
2018-02-04T13:04:30.167Z,18.70
2018-02-04T13:06:58.546Z,20.93
2018-02-04T13:09:26.971Z,20.30
2018-02-04T13:11:55.444Z,19.17
2018-02-04T13:14:23.862Z,18.40
2018-02-04T13:16:53.352Z,16.30
2018-02-04T13:19:21.712Z,20.30
2018-02-04T13:21:50.082Z,20.60
2018-02-04T13:24:18.438Z,18.30
2018-02-04T13:26:46.813Z,19.53
2018-02-04T13:29:15.434Z,18.97
2018-02-04T13:31:43.885Z,19.60
2018-02-04T13:34:12.268Z,19.70
2018-02-04T13:36:40.646Z,17.50
2018-02-04T13:39:09.106Z,16.63
2018-02-04T13:41:37.580Z,18.80
2018-02-04T13:44:05.957Z,16.83
2018-02-04T13:46:34.134Z,14.60
2018-02-04T13:49:02.530Z,21.30
2018-02-04T13:51:30.900Z,17.63
2018-02-04T13:53:59.379Z,14.60
2018-02-04T13:56:28.014Z,14.97
2018-02-04T13:58:56.381Z,14.23
2018-02-04T14:01:24.742Z,17.20
2018-02-04T14:03:53.294Z,15.63
2018-02-04T14:06:21.325Z,15.60
2018-02-04T14:08:50.476Z,14.57
2018-02-04T14:11:18.960Z,12.47
2018-02-04T14:13:47.322Z,14.87
2018-02-04T14:16:15.917Z,13.80
2018-02-04T14:18:44.413Z,14.90
2018-02-04T14:21:12.776Z,13.30
2018-02-04T14:23:41.144Z,15.03
2018-02-04T14:26:09.518Z,15.37
2018-02-04T14:28:37.923Z,12.17
2018-02-04T14:31:06.312Z,11.90
2018-02-04T14:33:34.516Z,14.17
2018-02-04T14:36:03.851Z,11.73
2018-02-04T14:38:32.387Z,12.53
2018-02-04T14:41:01.773Z,13.13
2018-02-04T14:43:30.459Z,11.37
2018-02-04T14:45:58.813Z,10.47
2018-02-04T14:48:27.190Z,11.30
2018-02-04T14:50:55.404Z,10.87
2018-02-04T14:53:24.559Z,9.17
2018-02-04T14:55:52.761Z,10.43
2018-02-04T14:58:21.256Z,9.67
2018-02-04T15:00:50.521Z,10.47
2018-02-04T15:03:18.933Z,8.87
2018-02-04T15:05:48.274Z,10.80
2018-02-04T15:08:16.922Z,11.23
2018-02-04T15:10:46.227Z,14.60
2018-02-04T15:13:15.298Z,9.43
2018-02-04T15:15:43.694Z,9.33
2018-02-04T15:18:12.868Z,10.50
2018-02-04T15:20:41.379Z,8.77
2018-02-04T15:23:10.539Z,8.93
2018-02-04T15:25:39.847Z,9.77
2018-02-04T15:28:08.376Z,9.73
2018-02-04T15:30:36.842Z,10.37
2018-02-04T15:33:05.193Z,9.37
2018-02-04T15:35:33.543Z,11.67
2018-02-04T15:38:02.046Z,10.93
2018-02-04T15:40:30.402Z,10.00
2018-02-04T15:42:58.779Z,10.10
2018-02-04T15:45:27.178Z,11.67
2018-02-04T15:47:57.041Z,9.63
2018-02-04T15:50:25.434Z,9.27
2018-02-04T15:52:53.790Z,10.17
2018-02-04T15:55:22.162Z,12.70
2018-02-04T15:57:50.741Z,8.27
2018-02-04T16:00:19.088Z,7.83
2018-02-04T16:02:47.455Z,9.43
2018-02-04T16:05:15.805Z,8.73
2018-02-04T16:07:44.171Z,9.30
2018-02-04T16:10:12.734Z,10.73
2018-02-04T16:12:42.038Z,12.10
2018-02-04T16:15:11.345Z,8.73
2018-02-04T16:17:39.727Z,11.40
2018-02-04T16:20:08.054Z,9.63
2018-02-04T16:22:37.507Z,11.40
2018-02-04T16:25:05.873Z,10.60
2018-02-04T16:27:34.246Z,10.70
2018-02-04T16:30:02.666Z,12.17
2018-02-04T16:32:31.100Z,9.33
2018-02-04T16:34:59.518Z,10.53
2018-02-04T16:37:27.874Z,12.57
2018-02-04T16:39:56.287Z,10.50
2018-02-04T16:42:24.653Z,10.13
2018-02-04T16:44:53.035Z,11.30
2018-02-04T16:47:21.422Z,11.63
2018-02-04T16:49:49.151Z,10.33
2018-02-04T16:52:17.809Z,10.90
2018-02-04T16:54:46.803Z,12.17
2018-02-04T16:57:15.906Z,12.50
2018-02-04T16:59:44.267Z,12.03
2018-02-04T17:02:14.112Z,10.93
2018-02-04T17:04:42.470Z,12.53
2018-02-04T17:07:11.581Z,11.20
2018-02-04T17:09:40.006Z,12.97
2018-02-04T17:12:08.554Z,13.57
2018-02-04T17:14:37.012Z,15.23
2018-02-04T17:17:06.158Z,12.10
2018-02-04T17:19:34.523Z,14.03
2018-02-04T17:22:02.723Z,15.03
2018-02-04T17:24:31.082Z,16.13
2018-02-04T17:26:59.536Z,14.20
2018-02-04T17:29:27.877Z,14.97
2018-02-04T17:31:57.029Z,16.50
2018-02-04T17:34:25.402Z,15.40
2018-02-04T17:36:53.835Z,17.03
2018-02-04T17:39:22.826Z,15.63
2018-02-04T17:41:52.227Z,18.33
2018-02-04T17:44:21.407Z,20.20
2018-02-04T17:46:50.184Z,19.50
2018-02-04T17:49:18.380Z,17.33
2018-02-04T17:51:46.734Z,16.30
2018-02-04T17:54:14.931Z,19.17
2018-02-04T17:56:43.998Z,20.57
2018-02-04T17:59:12.194Z,19.13
2018-02-04T18:01:40.624Z,17.00
2018-02-04T18:04:08.997Z,20.77
2018-02-04T18:06:37.490Z,23.87
2018-02-04T18:09:05.507Z,20.60
2018-02-04T18:11:34.686Z,20.07
2018-02-04T18:14:03.115Z,20.43
2018-02-04T18:16:31.294Z,20.40
2018-02-04T18:18:59.650Z,21.37
2018-02-04T18:21:28.786Z,22.20
2018-02-04T18:23:57.807Z,21.30
2018-02-04T18:26:26.184Z,20.37
2018-02-04T18:28:54.528Z,18.50
2018-02-04T18:31:22.914Z,18.23
2018-02-04T18:33:51.278Z,20.27
2018-02-04T18:36:19.853Z,18.80
2018-02-04T18:38:48.235Z,18.87
2018-02-04T18:41:16.764Z,19.23
2018-02-04T18:43:44.376Z,17.17
2018-02-04T18:46:12.859Z,20.37
2018-02-04T18:48:41.250Z,20.10
2018-02-04T18:51:09.314Z,16.47
2018-02-04T18:53:37.888Z,16.80
2018-02-04T18:56:06.366Z,16.07
2018-02-04T18:58:34.464Z,16.70
2018-02-04T19:01:03.040Z,17.10
2018-02-04T19:03:31.613Z,22.20
2018-02-04T19:06:00.064Z,23.53
2018-02-04T19:08:29.350Z,18.20
2018-02-04T19:10:58.448Z,20.20
2018-02-04T19:13:27.065Z,19.17
2018-02-04T19:15:55.481Z,19.63
2018-02-04T19:18:23.963Z,17.97
2018-02-04T19:20:53.226Z,20.00
2018-02-04T19:23:21.617Z,19.60
2018-02-04T19:25:50.002Z,17.47
2018-02-04T19:28:18.462Z,19.30
2018-02-04T19:30:46.863Z,22.07
2018-02-04T19:33:15.281Z,19.77
2018-02-04T19:35:44.435Z,19.27
2018-02-04T19:38:12.860Z,20.30
2018-02-04T19:40:41.526Z,20.70
2018-02-04T19:43:09.930Z,22.13
2018-02-04T19:45:39.160Z,21.77
2018-02-04T19:48:08.047Z,23.93
2018-02-04T19:50:36.448Z,21.93
2018-02-04T19:53:04.834Z,22.13
2018-02-04T19:55:33.381Z,23.50
2018-02-04T19:58:02.029Z,23.63
2018-02-04T20:00:30.418Z,24.17
2018-02-04T20:02:59.593Z,23.33
2018-02-04T20:05:28.749Z,24.80
2018-02-04T20:07:57.149Z,26.87
2018-02-04T20:10:25.545Z,27.53
2018-02-04T20:12:54.756Z,25.80
2018-02-04T20:15:23.542Z,28.93
2018-02-04T20:17:52.835Z,26.80
2018-02-04T20:20:22.558Z,27.77
2018-02-04T20:22:51.722Z,32.67
2018-02-04T20:25:20.265Z,26.67
2018-02-04T20:27:48.657Z,32.83
2018-02-04T20:30:17.031Z,29.83
2018-02-04T20:32:56.817Z,28.63
2018-02-04T20:35:25.228Z,28.50
2018-02-04T20:37:53.696Z,27.60
2018-02-04T20:40:22.834Z,31.03
2018-02-04T20:42:50.559Z,29.20
2018-02-04T20:45:19.895Z,29.60
2018-02-04T20:47:48.462Z,30.03
2018-02-04T20:50:16.995Z,31.40
2018-02-04T20:52:45.375Z,31.33
2018-02-04T20:55:13.768Z,31.80
2018-02-04T20:57:42.926Z,31.83
2018-02-04T21:00:11.466Z,35.37
2018-02-04T21:02:39.864Z,35.90
2018-02-04T21:05:08.247Z,33.77
2018-02-04T21:07:36.768Z,32.27
2018-02-04T21:10:05.310Z,32.70
2018-02-04T21:12:33.747Z,36.20
2018-02-04T21:15:02.280Z,36.80
2018-02-04T21:17:30.718Z,35.20
2018-02-04T21:19:59.191Z,37.80
2018-02-04T21:22:28.404Z,35.17
2018-02-04T21:24:57.012Z,34.43
2018-02-04T21:27:25.442Z,36.97
2018-02-04T21:29:53.895Z,37.80
2018-02-04T21:32:22.440Z,35.63
2018-02-04T21:34:50.215Z,36.30
2018-02-04T21:37:20.180Z,37.47
2018-02-04T21:39:49.311Z,40.53
2018-02-04T21:42:17.698Z,37.57
2018-02-04T21:44:46.082Z,38.27
2018-02-04T21:47:14.458Z,35.93
2018-02-04T21:49:42.816Z,37.93
2018-02-04T21:52:11.190Z,33.77
2018-02-04T21:54:39.543Z,36.47
2018-02-04T21:57:08.720Z,34.93
2018-02-04T21:59:37.160Z,35.40
2018-02-04T22:02:06.492Z,32.87
2018-02-04T22:04:34.874Z,32.60
2018-02-04T22:07:04.036Z,34.23
2018-02-04T22:09:32.421Z,34.57
2018-02-04T22:12:00.798Z,36.47
2018-02-04T22:14:29.276Z,36.97
2018-02-04T22:16:57.723Z,36.87
2018-02-04T22:19:26.093Z,35.30
2018-02-04T22:21:55.359Z,34.23
2018-02-04T22:24:23.959Z,36.27
2018-02-04T22:26:52.401Z,36.37
2018-02-04T22:29:21.382Z,37.47
2018-02-04T22:31:49.750Z,37.57
2018-02-04T22:34:18.357Z,37.77
2018-02-04T22:36:46.923Z,35.93
2018-02-04T22:39:15.372Z,33.40
2018-02-04T22:41:44.499Z,35.13
2018-02-04T22:44:12.929Z,38.00
2018-02-04T22:46:42.834Z,36.47
2018-02-04T22:49:11.379Z,33.50
2018-02-04T22:51:39.365Z,37.17
2018-02-04T22:54:07.572Z,35.43
2018-02-04T22:56:36.664Z,35.97
2018-02-04T22:59:04.887Z,39.17
2018-02-04T23:01:33.266Z,38.23
2018-02-04T23:04:01.809Z,34.67
2018-02-04T23:06:31.151Z,36.97
2018-02-04T23:08:59.672Z,35.23
2018-02-04T23:11:29.012Z,38.70
2018-02-04T23:13:57.362Z,35.50
2018-02-04T23:16:25.741Z,34.43
2018-02-04T23:18:54.123Z,37.07
2018-02-04T23:21:22.305Z,38.93
2018-02-04T23:23:51.104Z,39.30
2018-02-04T23:26:20.252Z,40.60
2018-02-04T23:28:49.103Z,40.23
2018-02-04T23:31:17.894Z,38.13
2018-02-04T23:33:46.238Z,35.73
2018-02-04T23:36:15.412Z,33.57
2018-02-04T23:38:44.654Z,35.50
2018-02-04T23:41:13.148Z,38.07
2018-02-04T23:43:41.538Z,36.97
2018-02-04T23:46:10.031Z,36.10
2018-02-04T23:48:38.484Z,38.83
2018-02-04T23:51:06.849Z,36.57
2018-02-04T23:53:35.982Z,35.43
2018-02-04T23:56:04.327Z,38.70
2018-02-04T23:58:32.735Z,35.13
